sensor_id;sensor_type;location;lat;lon;timestamp;P1;durP1;ratioP1;P2;durP2;ratioP2
35745;SDS011;21870;42.812;74.628;2022-11-20T00:03:36;5.10;;;4.45;;
35745;SDS011;21870;42.812;74.628;2022-11-20T00:06:03;3.92;;;3.60;;
35745;SDS011;21870;42.812;74.628;2022-11-20T00:08:31;4.30;;;3.90;;
35745;SDS011;21870;42.812;74.628;2022-11-20T00:10:57;5.18;;;4.68;;
35745;SDS011;21870;42.812;74.628;2022-11-20T00:13:32;8.32;;;4.38;;
35745;SDS011;21870;42.812;74.628;2022-11-20T00:16:00;5.53;;;4.13;;
35745;SDS011;21870;42.812;74.628;2022-11-20T00:18:27;4.32;;;3.92;;
35745;SDS011;21870;42.812;74.628;2022-11-20T00:20:59;5.65;;;4.93;;
35745;SDS011;21870;42.812;74.628;2022-11-20T00:23:27;8.25;;;4.50;;
35745;SDS011;21870;42.812;74.628;2022-11-20T00:25:53;4.57;;;4.07;;
35745;SDS011;21870;42.812;74.628;2022-11-20T00:28:19;4.70;;;4.30;;
35745;SDS011;21870;42.812;74.628;2022-11-20T00:30:45;6.38;;;4.75;;
35745;SDS011;21870;42.812;74.628;2022-11-20T00:33:11;5.28;;;4.00;;
35745;SDS011;21870;42.812;74.628;2022-11-20T00:35:37;6.13;;;4.57;;
35745;SDS011;21870;42.812;74.628;2022-11-20T00:38:03;4.53;;;4.13;;
35745;SDS011;21870;42.812;74.628;2022-11-20T00:40:29;7.53;;;5.07;;
35745;SDS011;21870;42.812;74.628;2022-11-20T00:42:55;6.68;;;4.45;;
35745;SDS011;21870;42.812;74.628;2022-11-20T00:45:21;4.90;;;4.35;;
35745;SDS011;21870;42.812;74.628;2022-11-20T00:47:47;5.38;;;3.95;;
35745;SDS011;21870;42.812;74.628;2022-11-20T00:50:13;4.40;;;3.70;;
35745;SDS011;21870;42.812;74.628;2022-11-20T00:52:39;4.18;;;3.65;;
35745;SDS011;21870;42.812;74.628;2022-11-20T00:55:06;6.30;;;3.70;;
35745;SDS011;21870;42.812;74.628;2022-11-20T00:57:32;6.72;;;4.15;;
35745;SDS011;21870;42.812;74.628;2022-11-20T00:59:58;5.72;;;4.18;;
35745;SDS011;21870;42.812;74.628;2022-11-20T01:02:24;4.45;;;3.90;;
35745;SDS011;21870;42.812;74.628;2022-11-20T01:04:50;4.03;;;3.50;;
35745;SDS011;21870;42.812;74.628;2022-11-20T01:07:19;3.88;;;3.30;;
35745;SDS011;21870;42.812;74.628;2022-11-20T01:09:45;4.30;;;3.67;;
35745;SDS011;21870;42.812;74.628;2022-11-20T01:12:11;5.40;;;4.20;;
35745;SDS011;21870;42.812;74.628;2022-11-20T01:14:37;4.18;;;3.88;;
35745;SDS011;21870;42.812;74.628;2022-11-20T01:17:03;4.15;;;3.42;;
35745;SDS011;21870;42.812;74.628;2022-11-20T01:19:29;4.30;;;3.20;;
35745;SDS011;21870;42.812;74.628;2022-11-20T01:21:55;3.97;;;3.67;;
35745;SDS011;21870;42.812;74.628;2022-11-20T01:24:22;3.72;;;3.42;;
35745;SDS011;21870;42.812;74.628;2022-11-20T01:26:49;6.50;;;3.70;;
35745;SDS011;21870;42.812;74.628;2022-11-20T01:29:17;5.63;;;3.63;;
35745;SDS011;21870;42.812;74.628;2022-11-20T01:31:49;4.40;;;3.75;;
35745;SDS011;21870;42.812;74.628;2022-11-20T01:34:18;5.70;;;3.10;;
35745;SDS011;21870;42.812;74.628;2022-11-20T01:36:48;3.40;;;2.80;;
35745;SDS011;21870;42.812;74.628;2022-11-20T01:39:18;3.97;;;3.53;;
35745;SDS011;21870;42.812;74.628;2022-11-20T01:41:46;3.88;;;3.42;;
35745;SDS011;21870;42.812;74.628;2022-11-20T01:44:53;5.05;;;3.58;;
35745;SDS011;21870;42.812;74.628;2022-11-20T01:47:27;5.47;;;3.60;;
35745;SDS011;21870;42.812;74.628;2022-11-20T01:50:11;3.83;;;3.35;;
35745;SDS011;21870;42.812;74.628;2022-11-20T01:52:46;3.72;;;3.42;;
35745;SDS011;21870;42.812;74.628;2022-11-20T01:55:28;4.25;;;3.45;;
35745;SDS011;21870;42.812;74.628;2022-11-20T01:57:58;4.97;;;3.50;;
35745;SDS011;21870;42.812;74.628;2022-11-20T02:00:25;5.95;;;3.65;;
35745;SDS011;21870;42.812;74.628;2022-11-20T02:02:52;4.68;;;4.07;;
35745;SDS011;21870;42.812;74.628;2022-11-20T02:05:23;3.78;;;3.45;;
35745;SDS011;21870;42.812;74.628;2022-11-20T02:07:54;5.05;;;3.47;;
35745;SDS011;21870;42.812;74.628;2022-11-20T02:10:22;4.47;;;3.55;;
35745;SDS011;21870;42.812;74.628;2022-11-20T02:12:49;4.65;;;3.70;;
35745;SDS011;21870;42.812;74.628;2022-11-20T02:15:33;7.63;;;4.43;;
35745;SDS011;21870;42.812;74.628;2022-11-20T02:17:59;6.32;;;5.47;;
35745;SDS011;21870;42.812;74.628;2022-11-20T02:20:26;9.40;;;5.18;;
35745;SDS011;21870;42.812;74.628;2022-11-20T02:23:08;7.55;;;4.72;;
35745;SDS011;21870;42.812;74.628;2022-11-20T02:25:38;5.93;;;5.25;;
35745;SDS011;21870;42.812;74.628;2022-11-20T02:28:06;6.97;;;5.45;;
35745;SDS011;21870;42.812;74.628;2022-11-20T02:30:32;6.22;;;5.03;;
35745;SDS011;21870;42.812;74.628;2022-11-20T02:32:58;6.05;;;5.45;;
35745;SDS011;21870;42.812;74.628;2022-11-20T02:37:51;8.70;;;5.05;;
35745;SDS011;21870;42.812;74.628;2022-11-20T02:40:22;5.55;;;4.90;;
35745;SDS011;21870;42.812;74.628;2022-11-20T02:42:52;6.38;;;4.32;;
35745;SDS011;21870;42.812;74.628;2022-11-20T02:45:21;7.88;;;4.22;;
35745;SDS011;21870;42.812;74.628;2022-11-20T02:47:48;6.03;;;4.20;;
35745;SDS011;21870;42.812;74.628;2022-11-20T02:50:14;6.30;;;4.32;;
35745;SDS011;21870;42.812;74.628;2022-11-20T02:52:40;7.38;;;5.00;;
35745;SDS011;21870;42.812;74.628;2022-11-20T02:55:07;5.07;;;4.57;;
35745;SDS011;21870;42.812;74.628;2022-11-20T02:57:33;7.88;;;5.15;;
35745;SDS011;21870;42.812;74.628;2022-11-20T02:59:59;6.45;;;4.72;;
35745;SDS011;21870;42.812;74.628;2022-11-20T03:02:29;6.50;;;4.90;;
35745;SDS011;21870;42.812;74.628;2022-11-20T03:04:56;7.85;;;4.80;;
35745;SDS011;21870;42.812;74.628;2022-11-20T03:07:22;8.70;;;4.40;;
35745;SDS011;21870;42.812;74.628;2022-11-20T03:09:48;8.80;;;4.72;;
35745;SDS011;21870;42.812;74.628;2022-11-20T03:12:14;4.97;;;4.47;;
35745;SDS011;21870;42.812;74.628;2022-11-20T03:14:40;5.88;;;4.95;;
35745;SDS011;21870;42.812;74.628;2022-11-20T03:17:06;6.93;;;5.18;;
35745;SDS011;21870;42.812;74.628;2022-11-20T03:19:32;8.15;;;5.65;;
35745;SDS011;21870;42.812;74.628;2022-11-20T03:21:59;6.80;;;5.00;;
35745;SDS011;21870;42.812;74.628;2022-11-20T03:24:25;8.30;;;5.47;;
35745;SDS011;21870;42.812;74.628;2022-11-20T03:26:52;7.80;;;5.53;;
35745;SDS011;21870;42.812;74.628;2022-11-20T03:29:18;11.07;;;6.40;;
35745;SDS011;21870;42.812;74.628;2022-11-20T03:31:44;9.82;;;7.88;;
35745;SDS011;21870;42.812;74.628;2022-11-20T03:34:10;10.77;;;8.45;;
35745;SDS011;21870;42.812;74.628;2022-11-20T03:36:40;12.15;;;9.25;;
35745;SDS011;21870;42.812;74.628;2022-11-20T03:39:08;14.32;;;9.25;;
35745;SDS011;21870;42.812;74.628;2022-11-20T03:41:38;9.95;;;7.85;;
35745;SDS011;21870;42.812;74.628;2022-11-20T03:44:06;10.02;;;7.28;;
35745;SDS011;21870;42.812;74.628;2022-11-20T03:46:34;9.98;;;7.57;;
35745;SDS011;21870;42.812;74.628;2022-11-20T03:49:00;12.80;;;8.50;;
35745;SDS011;21870;42.812;74.628;2022-11-20T03:51:27;11.82;;;7.75;;
35745;SDS011;21870;42.812;74.628;2022-11-20T03:53:57;18.88;;;8.65;;
35745;SDS011;21870;42.812;74.628;2022-11-20T03:56:29;10.93;;;8.90;;
35745;SDS011;21870;42.812;74.628;2022-11-20T03:58:57;13.32;;;9.50;;
35745;SDS011;21870;42.812;74.628;2022-11-20T04:01:24;12.70;;;9.63;;
35745;SDS011;21870;42.812;74.628;2022-11-20T04:03:52;12.70;;;9.65;;
35745;SDS011;21870;42.812;74.628;2022-11-20T04:06:22;12.45;;;9.88;;
35745;SDS011;21870;42.812;74.628;2022-11-20T04:08:50;14.80;;;11.15;;
35745;SDS011;21870;42.812;74.628;2022-11-20T04:11:20;14.70;;;10.02;;
35745;SDS011;21870;42.812;74.628;2022-11-20T04:13:54;14.55;;;10.20;;
35745;SDS011;21870;42.812;74.628;2022-11-20T04:16:24;14.00;;;8.70;;
35745;SDS011;21870;42.812;74.628;2022-11-20T04:18:57;14.07;;;7.72;;
35745;SDS011;21870;42.812;74.628;2022-11-20T04:21:24;8.95;;;7.43;;
35745;SDS011;21870;42.812;74.628;2022-11-20T04:23:51;8.77;;;7.40;;
35745;SDS011;21870;42.812;74.628;2022-11-20T04:26:18;12.05;;;7.43;;
35745;SDS011;21870;42.812;74.628;2022-11-20T04:28:47;9.32;;;7.05;;
35745;SDS011;21870;42.812;74.628;2022-11-20T04:31:15;8.05;;;7.22;;
35745;SDS011;21870;42.812;74.628;2022-11-20T04:33:46;9.48;;;6.43;;
35745;SDS011;21870;42.812;74.628;2022-11-20T04:36:20;11.35;;;7.22;;
35745;SDS011;21870;42.812;74.628;2022-11-20T04:38:51;15.32;;;8.20;;
35745;SDS011;21870;42.812;74.628;2022-11-20T04:41:19;8.73;;;7.32;;
35745;SDS011;21870;42.812;74.628;2022-11-20T04:43:50;12.70;;;6.40;;
35745;SDS011;21870;42.812;74.628;2022-11-20T04:46:18;11.15;;;5.40;;
35745;SDS011;21870;42.812;74.628;2022-11-20T04:48:46;11.20;;;6.07;;
35745;SDS011;21870;42.812;74.628;2022-11-20T04:51:12;11.30;;;5.82;;
35745;SDS011;21870;42.812;74.628;2022-11-20T04:53:38;8.98;;;5.78;;
35745;SDS011;21870;42.812;74.628;2022-11-20T04:56:06;9.60;;;6.07;;
35745;SDS011;21870;42.812;74.628;2022-11-20T04:58:33;7.47;;;4.93;;
35745;SDS011;21870;42.812;74.628;2022-11-20T05:03:29;10.65;;;5.50;;
35745;SDS011;21870;42.812;74.628;2022-11-20T05:05:56;12.18;;;5.60;;
35745;SDS011;21870;42.812;74.628;2022-11-20T05:08:26;8.10;;;5.13;;
35745;SDS011;21870;42.812;74.628;2022-11-20T05:10:52;7.65;;;5.07;;
35745;SDS011;21870;42.812;74.628;2022-11-20T05:13:18;6.15;;;4.88;;
35745;SDS011;21870;42.812;74.628;2022-11-20T05:15:44;7.93;;;5.07;;
35745;SDS011;21870;42.812;74.628;2022-11-20T05:18:10;6.60;;;4.47;;
35745;SDS011;21870;42.812;74.628;2022-11-20T05:20:36;8.95;;;4.93;;
35745;SDS011;21870;42.812;74.628;2022-11-20T05:23:02;9.20;;;5.13;;
35745;SDS011;21870;42.812;74.628;2022-11-20T05:25:28;6.15;;;4.70;;
35745;SDS011;21870;42.812;74.628;2022-11-20T05:27:54;6.75;;;4.28;;
35745;SDS011;21870;42.812;74.628;2022-11-20T05:30:20;7.13;;;4.32;;
35745;SDS011;21870;42.812;74.628;2022-11-20T05:32:47;7.75;;;5.20;;
35745;SDS011;21870;42.812;74.628;2022-11-20T05:35:13;8.35;;;4.20;;
35745;SDS011;21870;42.812;74.628;2022-11-20T05:37:39;6.80;;;4.30;;
35745;SDS011;21870;42.812;74.628;2022-11-20T05:40:05;4.95;;;4.22;;
35745;SDS011;21870;42.812;74.628;2022-11-20T05:42:31;6.90;;;4.53;;
35745;SDS011;21870;42.812;74.628;2022-11-20T05:45:02;11.32;;;4.80;;
35745;SDS011;21870;42.812;74.628;2022-11-20T05:47:33;7.03;;;5.25;;
35745;SDS011;21870;42.812;74.628;2022-11-20T05:49:59;10.57;;;4.40;;
35745;SDS011;21870;42.812;74.628;2022-11-20T05:52:29;9.73;;;3.80;;
35745;SDS011;21870;42.812;74.628;2022-11-20T05:54:56;6.38;;;3.47;;
35745;SDS011;21870;42.812;74.628;2022-11-20T05:57:22;7.82;;;4.75;;
35745;SDS011;21870;42.812;74.628;2022-11-20T05:59:48;5.18;;;4.05;;
35745;SDS011;21870;42.812;74.628;2022-11-20T06:02:14;8.95;;;7.18;;
35745;SDS011;21870;42.812;74.628;2022-11-20T06:04:40;5.13;;;4.15;;
35745;SDS011;21870;42.812;74.628;2022-11-20T06:07:06;8.70;;;4.90;;
35745;SDS011;21870;42.812;74.628;2022-11-20T06:09:33;5.78;;;5.15;;
35745;SDS011;21870;42.812;74.628;2022-11-20T06:11:59;5.80;;;5.03;;
35745;SDS011;21870;42.812;74.628;2022-11-20T06:14:25;6.65;;;4.75;;
35745;SDS011;21870;42.812;74.628;2022-11-20T06:16:51;8.05;;;4.95;;
35745;SDS011;21870;42.812;74.628;2022-11-20T06:19:17;7.45;;;4.88;;
35745;SDS011;21870;42.812;74.628;2022-11-20T06:21:43;6.50;;;4.97;;
35745;SDS011;21870;42.812;74.628;2022-11-20T06:24:09;9.23;;;5.30;;
35745;SDS011;21870;42.812;74.628;2022-11-20T06:26:36;7.47;;;5.35;;
35745;SDS011;21870;42.812;74.628;2022-11-20T06:29:02;9.80;;;8.77;;
35745;SDS011;21870;42.812;74.628;2022-11-20T06:31:28;10.25;;;6.20;;
35745;SDS011;21870;42.812;74.628;2022-11-20T06:33:54;8.25;;;5.45;;
35745;SDS011;21870;42.812;74.628;2022-11-20T06:36:21;7.85;;;6.25;;
35745;SDS011;21870;42.812;74.628;2022-11-20T06:38:48;7.90;;;6.40;;
35745;SDS011;21870;42.812;74.628;2022-11-20T06:41:15;6.72;;;5.85;;
35745;SDS011;21870;42.812;74.628;2022-11-20T06:43:43;9.13;;;6.22;;
35745;SDS011;21870;42.812;74.628;2022-11-20T06:46:10;9.73;;;5.45;;
35745;SDS011;21870;42.812;74.628;2022-11-20T06:48:37;8.20;;;5.57;;
35745;SDS011;21870;42.812;74.628;2022-11-20T06:51:04;7.03;;;5.18;;
35745;SDS011;21870;42.812;74.628;2022-11-20T06:53:32;8.05;;;6.55;;
35745;SDS011;21870;42.812;74.628;2022-11-20T06:55:59;5.97;;;5.35;;
35745;SDS011;21870;42.812;74.628;2022-11-20T06:58:28;7.00;;;5.53;;
35745;SDS011;21870;42.812;74.628;2022-11-20T07:01:03;6.03;;;5.38;;
35745;SDS011;21870;42.812;74.628;2022-11-20T07:03:31;9.48;;;4.70;;
35745;SDS011;21870;42.812;74.628;2022-11-20T07:05:57;7.78;;;4.88;;
35745;SDS011;21870;42.812;74.628;2022-11-20T07:08:25;5.38;;;4.85;;
35745;SDS011;21870;42.812;74.628;2022-11-20T07:10:51;5.82;;;4.93;;
35745;SDS011;21870;42.812;74.628;2022-11-20T07:13:17;6.72;;;4.75;;
35745;SDS011;21870;42.812;74.628;2022-11-20T07:15:43;9.60;;;5.35;;
35745;SDS011;21870;42.812;74.628;2022-11-20T07:18:10;6.55;;;5.32;;
35745;SDS011;21870;42.812;74.628;2022-11-20T07:20:36;7.70;;;5.25;;
35745;SDS011;21870;42.812;74.628;2022-11-20T07:23:02;9.02;;;5.85;;
35745;SDS011;21870;42.812;74.628;2022-11-20T07:25:28;7.38;;;5.22;;
35745;SDS011;21870;42.812;74.628;2022-11-20T07:27:58;11.82;;;5.07;;
35745;SDS011;21870;42.812;74.628;2022-11-20T07:30:25;6.80;;;4.97;;
35745;SDS011;21870;42.812;74.628;2022-11-20T07:32:55;9.10;;;5.63;;
35745;SDS011;21870;42.812;74.628;2022-11-20T07:35:22;10.88;;;5.38;;
35745;SDS011;21870;42.812;74.628;2022-11-20T07:37:49;11.18;;;5.30;;
35745;SDS011;21870;42.812;74.628;2022-11-20T07:40:16;9.60;;;4.78;;
35745;SDS011;21870;42.812;74.628;2022-11-20T07:45:15;8.80;;;5.72;;
35745;SDS011;21870;42.812;74.628;2022-11-20T07:47:42;8.20;;;5.18;;
35745;SDS011;21870;42.812;74.628;2022-11-20T07:50:08;7.47;;;5.35;;
35745;SDS011;21870;42.812;74.628;2022-11-20T07:52:34;10.65;;;5.88;;
35745;SDS011;21870;42.812;74.628;2022-11-20T07:55:00;11.90;;;6.03;;
35745;SDS011;21870;42.812;74.628;2022-11-20T07:57:26;7.55;;;5.82;;
35745;SDS011;21870;42.812;74.628;2022-11-20T07:59:52;9.43;;;6.88;;
35745;SDS011;21870;42.812;74.628;2022-11-20T08:02:18;8.77;;;6.05;;
35745;SDS011;21870;42.812;74.628;2022-11-20T08:04:44;9.73;;;6.82;;
35745;SDS011;21870;42.812;74.628;2022-11-20T08:07:10;10.73;;;7.20;;
35745;SDS011;21870;42.812;74.628;2022-11-20T08:09:36;9.93;;;6.32;;
35745;SDS011;21870;42.812;74.628;2022-11-20T08:12:02;9.63;;;6.63;;
35745;SDS011;21870;42.812;74.628;2022-11-20T08:14:47;11.57;;;8.25;;
35745;SDS011;21870;42.812;74.628;2022-11-20T08:17:13;11.93;;;7.28;;
35745;SDS011;21870;42.812;74.628;2022-11-20T08:19:39;17.90;;;12.13;;
35745;SDS011;21870;42.812;74.628;2022-11-20T08:22:05;9.95;;;7.70;;
35745;SDS011;21870;42.812;74.628;2022-11-20T08:24:31;12.95;;;7.07;;
35745;SDS011;21870;42.812;74.628;2022-11-20T08:26:57;11.05;;;6.85;;
35745;SDS011;21870;42.812;74.628;2022-11-20T08:29:25;12.95;;;7.38;;
35745;SDS011;21870;42.812;74.628;2022-11-20T08:31:52;10.13;;;7.00;;
35745;SDS011;21870;42.812;74.628;2022-11-20T08:34:18;10.02;;;6.43;;
35745;SDS011;21870;42.812;74.628;2022-11-20T08:36:44;17.00;;;9.52;;
35745;SDS011;21870;42.812;74.628;2022-11-20T08:39:11;11.52;;;7.60;;
35745;SDS011;21870;42.812;74.628;2022-11-20T08:41:38;11.75;;;6.97;;
35745;SDS011;21870;42.812;74.628;2022-11-20T08:44:05;10.13;;;7.68;;
35745;SDS011;21870;42.812;74.628;2022-11-20T08:46:33;11.10;;;8.00;;
35745;SDS011;21870;42.812;74.628;2022-11-20T08:49:05;14.95;;;7.35;;
35745;SDS011;21870;42.812;74.628;2022-11-20T08:51:36;13.85;;;7.25;;
35745;SDS011;21870;42.812;74.628;2022-11-20T08:54:03;9.90;;;7.63;;
35745;SDS011;21870;42.812;74.628;2022-11-20T08:56:29;22.00;;;7.55;;
35745;SDS011;21870;42.812;74.628;2022-11-20T08:58:56;8.73;;;6.97;;
35745;SDS011;21870;42.812;74.628;2022-11-20T09:01:24;10.18;;;8.35;;
35745;SDS011;21870;42.812;74.628;2022-11-20T09:03:51;11.38;;;7.60;;
35745;SDS011;21870;42.812;74.628;2022-11-20T09:06:17;13.05;;;7.97;;
35745;SDS011;21870;42.812;74.628;2022-11-20T09:08:43;11.77;;;7.78;;
35745;SDS011;21870;42.812;74.628;2022-11-20T09:11:10;12.00;;;8.88;;
35745;SDS011;21870;42.812;74.628;2022-11-20T09:13:36;18.80;;;9.80;;
35745;SDS011;21870;42.812;74.628;2022-11-20T09:16:04;14.13;;;8.55;;
35745;SDS011;21870;42.812;74.628;2022-11-20T09:18:32;15.55;;;7.50;;
35745;SDS011;21870;42.812;74.628;2022-11-20T09:21:02;10.27;;;7.63;;
35745;SDS011;21870;42.812;74.628;2022-11-20T09:23:36;13.77;;;8.48;;
35745;SDS011;21870;42.812;74.628;2022-11-20T09:26:13;12.63;;;8.25;;
35745;SDS011;21870;42.812;74.628;2022-11-20T09:28:39;11.77;;;7.30;;
35745;SDS011;21870;42.812;74.628;2022-11-20T09:31:07;10.70;;;7.63;;
35745;SDS011;21870;42.812;74.628;2022-11-20T09:33:34;16.17;;;7.95;;
35745;SDS011;21870;42.812;74.628;2022-11-20T09:36:01;13.07;;;7.35;;
35745;SDS011;21870;42.812;74.628;2022-11-20T09:38:27;11.10;;;7.25;;
35745;SDS011;21870;42.812;74.628;2022-11-20T09:41:03;11.35;;;7.72;;
35745;SDS011;21870;42.812;74.628;2022-11-20T09:43:55;10.82;;;8.15;;
35745;SDS011;21870;42.812;74.628;2022-11-20T09:46:30;16.73;;;7.75;;
35745;SDS011;21870;42.812;74.628;2022-11-20T09:54:19;12.05;;;7.57;;
35745;SDS011;21870;42.812;74.628;2022-11-20T09:56:55;11.52;;;8.43;;
35745;SDS011;21870;42.812;74.628;2022-11-20T09:59:32;12.90;;;8.27;;
35745;SDS011;21870;42.812;74.628;2022-11-20T10:02:25;11.48;;;8.60;;
35745;SDS011;21870;42.812;74.628;2022-11-20T10:07:52;13.20;;;8.80;;
35745;SDS011;21870;42.812;74.628;2022-11-20T10:10:34;11.20;;;8.02;;
35745;SDS011;21870;42.812;74.628;2022-11-20T10:13:28;9.50;;;8.27;;
35745;SDS011;21870;42.812;74.628;2022-11-20T10:16:21;13.70;;;9.00;;
35745;SDS011;21870;42.812;74.628;2022-11-20T10:29:59;14.93;;;9.02;;
35745;SDS011;21870;42.812;74.628;2022-11-20T10:32:38;12.50;;;9.45;;
35745;SDS011;21870;42.812;74.628;2022-11-20T10:35:22;13.18;;;9.25;;
35745;SDS011;21870;42.812;74.628;2022-11-20T10:37:55;12.43;;;8.52;;
35745;SDS011;21870;42.812;74.628;2022-11-20T10:43:06;15.68;;;12.55;;
35745;SDS011;21870;42.812;74.628;2022-11-20T10:45:52;18.52;;;11.70;;
35745;SDS011;21870;42.812;74.628;2022-11-20T10:48:21;14.35;;;12.18;;
35745;SDS011;21870;42.812;74.628;2022-11-20T10:56:19;17.35;;;12.90;;
35745;SDS011;21870;42.812;74.628;2022-11-20T10:59:10;18.00;;;12.85;;
35745;SDS011;21870;42.812;74.628;2022-11-20T11:01:50;17.33;;;13.95;;
35745;SDS011;21870;42.812;74.628;2022-11-20T11:07:22;28.85;;;14.85;;
35745;SDS011;21870;42.812;74.628;2022-11-20T11:10:01;24.60;;;16.33;;
35745;SDS011;21870;42.812;74.628;2022-11-20T11:12:44;20.48;;;15.15;;
35745;SDS011;21870;42.812;74.628;2022-11-20T11:15:26;20.35;;;17.05;;
35745;SDS011;21870;42.812;74.628;2022-11-20T11:18:08;19.58;;;16.55;;
35745;SDS011;21870;42.812;74.628;2022-11-20T11:20:35;26.25;;;18.02;;
35745;SDS011;21870;42.812;74.628;2022-11-20T11:23:02;27.38;;;17.80;;
35745;SDS011;21870;42.812;74.628;2022-11-20T11:25:30;26.85;;;16.50;;
35745;SDS011;21870;42.812;74.628;2022-11-20T11:28:05;25.08;;;17.60;;
35745;SDS011;21870;42.812;74.628;2022-11-20T11:30:45;27.65;;;17.33;;
35745;SDS011;21870;42.812;74.628;2022-11-20T11:33:32;27.98;;;17.52;;
35745;SDS011;21870;42.812;74.628;2022-11-20T11:36:02;26.98;;;18.60;;
35745;SDS011;21870;42.812;74.628;2022-11-20T11:38:41;28.80;;;20.75;;
35745;SDS011;21870;42.812;74.628;2022-11-20T11:41:19;26.20;;;20.67;;
35745;SDS011;21870;42.812;74.628;2022-11-20T11:43:55;32.15;;;21.70;;
35745;SDS011;21870;42.812;74.628;2022-11-20T11:47:18;28.92;;;25.98;;
35745;SDS011;21870;42.812;74.628;2022-11-20T11:50:13;26.58;;;23.75;;
35745;SDS011;21870;42.812;74.628;2022-11-20T11:52:49;31.05;;;23.60;;
35745;SDS011;21870;42.812;74.628;2022-11-20T11:55:44;23.70;;;21.20;;
35745;SDS011;21870;42.812;74.628;2022-11-20T12:01:17;25.90;;;23.10;;
35745;SDS011;21870;42.812;74.628;2022-11-20T12:06:30;29.58;;;23.13;;
35745;SDS011;21870;42.812;74.628;2022-11-20T12:09:05;27.10;;;22.52;;
35745;SDS011;21870;42.812;74.628;2022-11-20T12:14:17;31.85;;;24.63;;
35745;SDS011;21870;42.812;74.628;2022-11-20T12:16:57;39.95;;;35.83;;
35745;SDS011;21870;42.812;74.628;2022-11-20T12:19:23;35.67;;;30.77;;
35745;SDS011;21870;42.812;74.628;2022-11-20T12:22:06;41.55;;;33.20;;
35745;SDS011;21870;42.812;74.628;2022-11-20T12:25:09;46.28;;;38.92;;
35745;SDS011;21870;42.812;74.628;2022-11-20T12:30:36;60.85;;;50.38;;
35745;SDS011;21870;42.812;74.628;2022-11-20T12:33:25;66.47;;;54.30;;
35745;SDS011;21870;42.812;74.628;2022-11-20T12:36:07;78.00;;;60.03;;
35745;SDS011;21870;42.812;74.628;2022-11-20T12:50:22;91.28;;;74.88;;
35745;SDS011;21870;42.812;74.628;2022-11-20T12:55:47;91.40;;;74.93;;
35745;SDS011;21870;42.812;74.628;2022-11-20T12:58:36;87.97;;;72.97;;
35745;SDS011;21870;42.812;74.628;2022-11-20T13:01:45;90.78;;;68.10;;
35745;SDS011;21870;42.812;74.628;2022-11-20T13:07:18;85.65;;;62.03;;
35745;SDS011;21870;42.812;74.628;2022-11-20T13:09:47;71.03;;;60.33;;
35745;SDS011;21870;42.812;74.628;2022-11-20T13:17:30;75.70;;;59.42;;
35745;SDS011;21870;42.812;74.628;2022-11-20T13:20:12;76.07;;;63.35;;
35745;SDS011;21870;42.812;74.628;2022-11-20T13:22:45;75.00;;;60.05;;
35745;SDS011;21870;42.812;74.628;2022-11-20T13:25:22;74.57;;;59.97;;
35745;SDS011;21870;42.812;74.628;2022-11-20T13:27:48;66.80;;;55.35;;
35745;SDS011;21870;42.812;74.628;2022-11-20T13:30:16;74.90;;;59.97;;
35745;SDS011;21870;42.812;74.628;2022-11-20T13:32:47;75.40;;;60.17;;
35745;SDS011;21870;42.812;74.628;2022-11-20T13:35:23;72.25;;;55.40;;
35745;SDS011;21870;42.812;74.628;2022-11-20T13:40:29;69.82;;;56.20;;
35745;SDS011;21870;42.812;74.628;2022-11-20T13:45:40;67.00;;;56.50;;
35745;SDS011;21870;42.812;74.628;2022-11-20T13:51:10;63.47;;;56.25;;
35745;SDS011;21870;42.812;74.628;2022-11-20T13:56:49;70.78;;;55.08;;
35745;SDS011;21870;42.812;74.628;2022-11-20T14:02:02;73.55;;;56.13;;
35745;SDS011;21870;42.812;74.628;2022-11-20T14:04:33;62.85;;;53.55;;
35745;SDS011;21870;42.812;74.628;2022-11-20T14:07:05;56.63;;;47.85;;
35745;SDS011;21870;42.812;74.628;2022-11-20T14:09:32;54.45;;;46.45;;
35745;SDS011;21870;42.812;74.628;2022-11-20T14:11:59;51.47;;;43.00;;
35745;SDS011;21870;42.812;74.628;2022-11-20T14:14:27;55.42;;;40.67;;
35745;SDS011;21870;42.812;74.628;2022-11-20T14:17:05;49.40;;;40.15;;
35745;SDS011;21870;42.812;74.628;2022-11-20T14:19:32;50.33;;;40.67;;
35745;SDS011;21870;42.812;74.628;2022-11-20T14:24:43;42.72;;;36.03;;
35745;SDS011;21870;42.812;74.628;2022-11-20T14:27:19;56.13;;;40.13;;
35745;SDS011;21870;42.812;74.628;2022-11-20T14:29:47;47.08;;;38.55;;
35745;SDS011;21870;42.812;74.628;2022-11-20T14:32:16;43.92;;;35.45;;
35745;SDS011;21870;42.812;74.628;2022-11-20T14:34:44;47.10;;;36.00;;
35745;SDS011;21870;42.812;74.628;2022-11-20T14:37:17;41.70;;;34.40;;
35745;SDS011;21870;42.812;74.628;2022-11-20T14:39:50;43.10;;;35.05;;
35745;SDS011;21870;42.812;74.628;2022-11-20T14:42:22;40.58;;;31.95;;
35745;SDS011;21870;42.812;74.628;2022-11-20T14:44:50;48.38;;;34.25;;
35745;SDS011;21870;42.812;74.628;2022-11-20T14:47:21;44.05;;;34.72;;
35745;SDS011;21870;42.812;74.628;2022-11-20T14:49:51;48.85;;;33.72;;
35745;SDS011;21870;42.812;74.628;2022-11-20T14:52:19;41.45;;;34.13;;
35745;SDS011;21870;42.812;74.628;2022-11-20T14:54:53;47.08;;;33.60;;
35745;SDS011;21870;42.812;74.628;2022-11-20T14:57:30;51.38;;;35.30;;
35745;SDS011;21870;42.812;74.628;2022-11-20T15:00:07;41.83;;;33.10;;
35745;SDS011;21870;42.812;74.628;2022-11-20T15:02:47;53.03;;;33.97;;
35745;SDS011;21870;42.812;74.628;2022-11-20T15:05:15;41.58;;;33.75;;
35745;SDS011;21870;42.812;74.628;2022-11-20T15:07:44;39.95;;;33.78;;
35745;SDS011;21870;42.812;74.628;2022-11-20T15:10:19;44.38;;;35.10;;
35745;SDS011;21870;42.812;74.628;2022-11-20T15:12:51;39.67;;;35.40;;
35745;SDS011;21870;42.812;74.628;2022-11-20T15:15:20;61.60;;;43.42;;
35745;SDS011;21870;42.812;74.628;2022-11-20T15:17:58;53.70;;;42.03;;
35745;SDS011;21870;42.812;74.628;2022-11-20T15:20:26;55.85;;;42.80;;
35745;SDS011;21870;42.812;74.628;2022-11-20T15:22:55;46.42;;;39.33;;
35745;SDS011;21870;42.812;74.628;2022-11-20T15:25:21;53.80;;;40.83;;
35745;SDS011;21870;42.812;74.628;2022-11-20T15:27:51;48.50;;;40.53;;
35745;SDS011;21870;42.812;74.628;2022-11-20T15:30:20;57.38;;;41.63;;
35745;SDS011;21870;42.812;74.628;2022-11-20T15:32:47;55.60;;;44.92;;
35745;SDS011;21870;42.812;74.628;2022-11-20T15:35:14;55.75;;;49.30;;
35745;SDS011;21870;42.812;74.628;2022-11-20T15:37:40;43.83;;;39.00;;
35745;SDS011;21870;42.812;74.628;2022-11-20T15:40:07;47.15;;;39.92;;
35745;SDS011;21870;42.812;74.628;2022-11-20T15:42:33;46.15;;;37.55;;
35745;SDS011;21870;42.812;74.628;2022-11-20T15:45:00;40.92;;;35.85;;
35745;SDS011;21870;42.812;74.628;2022-11-20T15:47:30;43.40;;;35.65;;
35745;SDS011;21870;42.812;74.628;2022-11-20T15:49:59;39.97;;;31.60;;
35745;SDS011;21870;42.812;74.628;2022-11-20T15:52:25;39.15;;;29.58;;
35745;SDS011;21870;42.812;74.628;2022-11-20T15:54:51;29.05;;;25.95;;
35745;SDS011;21870;42.812;74.628;2022-11-20T15:57:17;29.75;;;24.38;;
35745;SDS011;21870;42.812;74.628;2022-11-20T15:59:44;27.67;;;24.95;;
35745;SDS011;21870;42.812;74.628;2022-11-20T16:02:10;29.95;;;26.27;;
35745;SDS011;21870;42.812;74.628;2022-11-20T16:04:37;29.92;;;26.52;;
35745;SDS011;21870;42.812;74.628;2022-11-20T16:07:03;33.30;;;29.70;;
35745;SDS011;21870;42.812;74.628;2022-11-20T16:09:30;24.48;;;21.83;;
35745;SDS011;21870;42.812;74.628;2022-11-20T16:11:56;26.40;;;23.73;;